sensor_id;sensor_type;location;lat;lon;timestamp;temperature;humidity
56115;DHT22;41988;53.020;6.576;2022-09-09T18:02:06;18.80;99.90
56115;DHT22;41988;53.020;6.576;2022-09-09T18:24:07;18.20;99.90
56115;DHT22;41988;53.020;6.576;2022-09-09T18:35:10;18.30;99.90
56115;DHT22;41988;53.020;6.576;2022-09-09T18:37:54;17.50;99.90
56115;DHT22;41988;53.020;6.576;2022-09-09T18:40:39;17.50;99.90
56115;DHT22;41988;53.020;6.576;2022-09-09T18:51:40;17.30;99.90
56115;DHT22;41988;53.020;6.576;2022-09-09T18:54:29;17.20;99.90
56115;DHT22;41988;53.020;6.576;2022-09-09T18:59:58;17.10;99.90
56115;DHT22;41988;53.020;6.576;2022-09-09T19:02:43;17.20;99.90
56115;DHT22;41988;53.020;6.576;2022-09-09T19:11:04;17.00;99.90
56115;DHT22;41988;53.020;6.576;2022-09-09T19:13:53;16.90;99.90
56115;DHT22;41988;53.020;6.576;2022-09-09T19:16:38;16.80;99.90
56115;DHT22;41988;53.020;6.576;2022-09-09T19:19:26;17.00;99.90
56115;DHT22;41988;53.020;6.576;2022-09-09T19:22:11;17.10;99.90
56115;DHT22;41988;53.020;6.576;2022-09-09T19:24:55;16.50;99.90
56115;DHT22;41988;53.020;6.576;2022-09-09T19:27:41;16.60;99.90
56115;DHT22;41988;53.020;6.576;2022-09-09T19:30:26;16.60;99.90
56115;DHT22;41988;53.020;6.576;2022-09-09T19:33:10;16.60;99.90
56115;DHT22;41988;53.020;6.576;2022-09-09T19:35:59;16.30;99.90
56115;DHT22;41988;53.020;6.576;2022-09-09T19:44:15;16.20;99.90
56115;DHT22;41988;53.020;6.576;2022-09-09T19:47:00;16.30;99.90
56115;DHT22;41988;53.020;6.576;2022-09-09T19:52:29;16.50;99.90
56115;DHT22;41988;53.020;6.576;2022-09-09T19:55:13;16.00;99.90
56115;DHT22;41988;53.020;6.576;2022-09-09T20:00:44;16.20;99.90
56115;DHT22;41988;53.020;6.576;2022-09-09T20:03:28;16.30;99.90
56115;DHT22;41988;53.020;6.576;2022-09-09T20:06:15;16.40;99.90
56115;DHT22;41988;53.020;6.576;2022-09-09T20:09:01;16.10;99.90
56115;DHT22;41988;53.020;6.576;2022-09-09T20:11:47;16.60;99.90
56115;DHT22;41988;53.020;6.576;2022-09-09T20:14:32;15.70;99.90
56115;DHT22;41988;53.020;6.576;2022-09-09T20:17:16;16.00;99.90
56115;DHT22;41988;53.020;6.576;2022-09-09T20:20:00;15.90;99.90
56115;DHT22;41988;53.020;6.576;2022-09-09T20:22:46;15.60;99.90
56115;DHT22;41988;53.020;6.576;2022-09-09T20:25:35;15.70;99.90
56115;DHT22;41988;53.020;6.576;2022-09-09T20:28:21;15.90;99.90
56115;DHT22;41988;53.020;6.576;2022-09-09T20:31:08;15.80;99.90
56115;DHT22;41988;53.020;6.576;2022-09-09T20:33:54;16.20;99.90
56115;DHT22;41988;53.020;6.576;2022-09-09T20:39:24;15.80;99.90
56115;DHT22;41988;53.020;6.576;2022-09-09T20:42:09;15.80;99.90
56115;DHT22;41988;53.020;6.576;2022-09-09T20:44:54;15.70;99.90
56115;DHT22;41988;53.020;6.576;2022-09-09T20:47:38;16.10;99.90
56115;DHT22;41988;53.020;6.576;2022-09-09T20:50:23;15.90;99.90
56115;DHT22;41988;53.020;6.576;2022-09-09T20:53:07;15.60;99.90
56115;DHT22;41988;53.020;6.576;2022-09-09T20:58:36;15.80;99.90
56115;DHT22;41988;53.020;6.576;2022-09-09T21:01:21;15.80;99.90
56115;DHT22;41988;53.020;6.576;2022-09-09T21:04:06;15.50;99.90
56115;DHT22;41988;53.020;6.576;2022-09-09T21:06:52;15.60;99.90
56115;DHT22;41988;53.020;6.576;2022-09-09T21:09:37;15.80;99.90
56115;DHT22;41988;53.020;6.576;2022-09-09T21:12:21;15.40;99.90
56115;DHT22;41988;53.020;6.576;2022-09-09T21:15:06;15.70;99.90
56115;DHT22;41988;53.020;6.576;2022-09-09T21:17:51;15.40;99.90
56115;DHT22;41988;53.020;6.576;2022-09-09T21:20:37;15.60;99.90
56115;DHT22;41988;53.020;6.576;2022-09-09T21:23:21;15.30;99.90
56115;DHT22;41988;53.020;6.576;2022-09-09T21:26:06;15.70;99.90
56115;DHT22;41988;53.020;6.576;2022-09-09T21:34:21;15.60;99.90
56115;DHT22;41988;53.020;6.576;2022-09-09T21:37:05;15.50;99.90
56115;DHT22;41988;53.020;6.576;2022-09-09T21:42:34;15.60;99.90
56115;DHT22;41988;53.020;6.576;2022-09-09T21:45:18;15.60;99.90
56115;DHT22;41988;53.020;6.576;2022-09-09T21:48:04;16.20;99.90
56115;DHT22;41988;53.020;6.576;2022-09-09T21:53:33;15.40;99.90
56115;DHT22;41988;53.020;6.576;2022-09-09T21:56:18;15.50;99.90
56115;DHT22;41988;53.020;6.576;2022-09-09T21:59:02;15.30;99.90
56115;DHT22;41988;53.020;6.576;2022-09-09T22:01:46;15.50;99.90
56115;DHT22;41988;53.020;6.576;2022-09-09T22:04:31;15.50;99.90
56115;DHT22;41988;53.020;6.576;2022-09-09T22:07:16;15.60;99.90
56115;DHT22;41988;53.020;6.576;2022-09-09T22:10:00;15.30;99.90
56115;DHT22;41988;53.020;6.576;2022-09-09T22:12:44;15.40;99.90
56115;DHT22;41988;53.020;6.576;2022-09-09T22:15:29;15.10;99.90
56115;DHT22;41988;53.020;6.576;2022-09-09T22:21:15;15.00;99.90
56115;DHT22;41988;53.020;6.576;2022-09-09T22:24:03;15.10;99.90
56115;DHT22;41988;53.020;6.576;2022-09-09T22:29:34;15.20;99.90
56115;DHT22;41988;53.020;6.576;2022-09-09T22:37:47;15.10;99.90
56115;DHT22;41988;53.020;6.576;2022-09-09T22:40:34;15.30;99.90
56115;DHT22;41988;53.020;6.576;2022-09-09T22:43:20;14.90;99.90
56115;DHT22;41988;53.020;6.576;2022-09-09T22:46:04;15.00;99.90
56115;DHT22;41988;53.020;6.576;2022-09-09T22:48:49;14.90;99.90
56115;DHT22;41988;53.020;6.576;2022-09-09T22:51:33;15.10;99.90
56115;DHT22;41988;53.020;6.576;2022-09-09T22:54:18;15.10;99.90
56115;DHT22;41988;53.020;6.576;2022-09-09T22:57:05;14.60;99.90
56115;DHT22;41988;53.020;6.576;2022-09-09T22:59:51;14.60;99.90
56115;DHT22;41988;53.020;6.576;2022-09-09T23:02:35;14.50;99.90
56115;DHT22;41988;53.020;6.576;2022-09-09T23:05:22;14.80;99.90
56115;DHT22;41988;53.020;6.576;2022-09-09T23:08:10;14.60;99.90
56115;DHT22;41988;53.020;6.576;2022-09-09T23:10:54;14.80;99.90
56115;DHT22;41988;53.020;6.576;2022-09-09T23:13:42;14.70;99.90
56115;DHT22;41988;53.020;6.576;2022-09-09T23:16:32;15.50;99.90
56115;DHT22;41988;53.020;6.576;2022-09-09T23:19:18;14.60;99.90
56115;DHT22;41988;53.020;6.576;2022-09-09T23:24:47;14.60;99.90
56115;DHT22;41988;53.020;6.576;2022-09-09T23:27:32;14.50;99.90
56115;DHT22;41988;53.020;6.576;2022-09-09T23:30:16;14.50;99.90
56115;DHT22;41988;53.020;6.576;2022-09-09T23:33:01;14.90;99.90
56115;DHT22;41988;53.020;6.576;2022-09-09T23:35:45;14.80;99.90
56115;DHT22;41988;53.020;6.576;2022-09-09T23:38:30;14.30;99.90
56115;DHT22;41988;53.020;6.576;2022-09-09T23:41:17;14.50;99.90
56115;DHT22;41988;53.020;6.576;2022-09-09T23:44:05;14.60;99.90
56115;DHT22;41988;53.020;6.576;2022-09-09T23:46:50;14.50;99.90
56115;DHT22;41988;53.020;6.576;2022-09-09T23:49:35;15.20;99.90
56115;DHT22;41988;53.020;6.576;2022-09-09T23:55:09;14.60;99.90
56115;DHT22;41988;53.020;6.576;2022-09-09T23:57:53;14.80;99.90
